sensor_id;sensor_type;location;lat;lon;timestamp;temperature;humidity
44851;DHT22;30583;48.714;9.386;2023-06-26T00:01:15;25.60;43.70
44851;DHT22;30583;48.714;9.386;2023-06-26T00:03:41;25.80;43.00
44851;DHT22;30583;48.714;9.386;2023-06-26T00:06:06;25.80;43.40
44851;DHT22;30583;48.714;9.386;2023-06-26T00:08:32;26.00;43.10
44851;DHT22;30583;48.714;9.386;2023-06-26T00:10:57;26.20;42.80
44851;DHT22;30583;48.714;9.386;2023-06-26T00:13:24;25.90;43.50
44851;DHT22;30583;48.714;9.386;2023-06-26T00:15:50;26.10;43.20
44851;DHT22;30583;48.714;9.386;2023-06-26T00:18:16;25.50;44.10
44851;DHT22;30583;48.714;9.386;2023-06-26T00:20:41;25.60;44.10
44851;DHT22;30583;48.714;9.386;2023-06-26T00:23:07;25.40;44.30
44851;DHT22;30583;48.714;9.386;2023-06-26T00:25:33;25.70;44.00
44851;DHT22;30583;48.714;9.386;2023-06-26T00:27:59;25.50;44.30
44851;DHT22;30583;48.714;9.386;2023-06-26T00:30:25;25.60;43.90
44851;DHT22;30583;48.714;9.386;2023-06-26T00:32:50;25.50;44.10
44851;DHT22;30583;48.714;9.386;2023-06-26T00:35:16;25.50;44.20
44851;DHT22;30583;48.714;9.386;2023-06-26T00:37:42;25.20;44.70
44851;DHT22;30583;48.714;9.386;2023-06-26T00:40:08;25.20;44.70
44851;DHT22;30583;48.714;9.386;2023-06-26T00:42:34;25.20;44.90
44851;DHT22;30583;48.714;9.386;2023-06-26T00:45:00;25.40;44.50
44851;DHT22;30583;48.714;9.386;2023-06-26T00:47:25;25.60;44.20
44851;DHT22;30583;48.714;9.386;2023-06-26T00:49:52;25.70;43.90
44851;DHT22;30583;48.714;9.386;2023-06-26T00:52:20;25.80;43.70
44851;DHT22;30583;48.714;9.386;2023-06-26T00:54:46;25.90;43.50
44851;DHT22;30583;48.714;9.386;2023-06-26T00:57:12;26.00;43.30
44851;DHT22;30583;48.714;9.386;2023-06-26T00:59:37;26.00;43.10
44851;DHT22;30583;48.714;9.386;2023-06-26T01:02:03;25.80;43.40
44851;DHT22;30583;48.714;9.386;2023-06-26T01:04:31;26.00;43.10
44851;DHT22;30583;48.714;9.386;2023-06-26T01:06:58;26.10;43.10
44851;DHT22;30583;48.714;9.386;2023-06-26T01:09:25;26.10;42.90
44851;DHT22;30583;48.714;9.386;2023-06-26T01:11:51;25.90;43.20
44851;DHT22;30583;48.714;9.386;2023-06-26T01:14:16;26.10;43.00
44851;DHT22;30583;48.714;9.386;2023-06-26T01:16:43;26.00;43.10
44851;DHT22;30583;48.714;9.386;2023-06-26T01:19:27;26.10;42.90
44851;DHT22;30583;48.714;9.386;2023-06-26T01:24:44;26.10;42.70
44851;DHT22;30583;48.714;9.386;2023-06-26T01:27:14;26.00;42.70
44851;DHT22;30583;48.714;9.386;2023-06-26T01:29:42;26.10;42.60
44851;DHT22;30583;48.714;9.386;2023-06-26T01:32:10;26.10;42.80
44851;DHT22;30583;48.714;9.386;2023-06-26T01:34:35;26.20;42.50
44851;DHT22;30583;48.714;9.386;2023-06-26T01:37:01;26.20;42.50
44851;DHT22;30583;48.714;9.386;2023-06-26T01:39:27;26.20;42.60
44851;DHT22;30583;48.714;9.386;2023-06-26T01:41:53;26.10;42.70
44851;DHT22;30583;48.714;9.386;2023-06-26T01:47:00;26.10;42.80
44851;DHT22;30583;48.714;9.386;2023-06-26T01:50:02;26.00;43.20
44851;DHT22;30583;48.714;9.386;2023-06-26T01:52:46;26.00;43.10
44851;DHT22;30583;48.714;9.386;2023-06-26T01:55:32;26.00;43.00
44851;DHT22;30583;48.714;9.386;2023-06-26T01:58:01;26.00;43.20
44851;DHT22;30583;48.714;9.386;2023-06-26T02:00:27;25.90;43.20
44851;DHT22;30583;48.714;9.386;2023-06-26T02:02:54;26.00;43.00
44851;DHT22;30583;48.714;9.386;2023-06-26T02:05:20;25.40;44.00
44851;DHT22;30583;48.714;9.386;2023-06-26T02:07:45;24.90;45.30
44851;DHT22;30583;48.714;9.386;2023-06-26T02:10:11;24.50;45.90
44851;DHT22;30583;48.714;9.386;2023-06-26T02:12:37;24.10;47.00
44851;DHT22;30583;48.714;9.386;2023-06-26T02:15:03;24.00;47.20
44851;DHT22;30583;48.714;9.386;2023-06-26T02:17:30;23.90;47.40
44851;DHT22;30583;48.714;9.386;2023-06-26T02:19:56;23.80;47.70
44851;DHT22;30583;48.714;9.386;2023-06-26T02:22:21;23.70;48.10
44851;DHT22;30583;48.714;9.386;2023-06-26T02:24:47;23.70;48.20
44851;DHT22;30583;48.714;9.386;2023-06-26T02:27:12;23.70;48.00
44851;DHT22;30583;48.714;9.386;2023-06-26T02:29:39;23.70;48.20
44851;DHT22;30583;48.714;9.386;2023-06-26T02:32:05;23.40;48.90
44851;DHT22;30583;48.714;9.386;2023-06-26T02:34:30;23.60;48.60
44851;DHT22;30583;48.714;9.386;2023-06-26T02:36:56;23.10;49.50
44851;DHT22;30583;48.714;9.386;2023-06-26T02:39:24;23.20;49.60
44851;DHT22;30583;48.714;9.386;2023-06-26T02:41:49;23.00;50.50
44851;DHT22;30583;48.714;9.386;2023-06-26T02:44:15;23.00;50.10
44851;DHT22;30583;48.714;9.386;2023-06-26T02:46:41;22.40;51.00
44851;DHT22;30583;48.714;9.386;2023-06-26T02:49:06;22.90;50.50
44851;DHT22;30583;48.714;9.386;2023-06-26T02:51:33;22.80;50.60
44851;DHT22;30583;48.714;9.386;2023-06-26T02:53:59;22.90;50.40
44851;DHT22;30583;48.714;9.386;2023-06-26T02:56:24;22.80;50.60
44851;DHT22;30583;48.714;9.386;2023-06-26T02:58:54;22.90;50.20
44851;DHT22;30583;48.714;9.386;2023-06-26T03:01:20;22.60;51.10
44851;DHT22;30583;48.714;9.386;2023-06-26T03:03:46;22.60;51.00
44851;DHT22;30583;48.714;9.386;2023-06-26T03:06:12;22.40;51.80
44851;DHT22;30583;48.714;9.386;2023-06-26T03:08:38;22.60;51.60
44851;DHT22;30583;48.714;9.386;2023-06-26T03:11:05;23.00;50.60
44851;DHT22;30583;48.714;9.386;2023-06-26T03:13:32;22.90;50.50
44851;DHT22;30583;48.714;9.386;2023-06-26T03:15:58;22.90;50.50
44851;DHT22;30583;48.714;9.386;2023-06-26T03:18:23;22.50;51.50
44851;DHT22;30583;48.714;9.386;2023-06-26T03:20:49;22.20;51.90
44851;DHT22;30583;48.714;9.386;2023-06-26T03:23:15;21.70;53.10
44851;DHT22;30583;48.714;9.386;2023-06-26T03:25:40;21.70;53.60
44851;DHT22;30583;48.714;9.386;2023-06-26T03:28:06;22.30;52.00
44851;DHT22;30583;48.714;9.386;2023-06-26T03:30:31;22.40;51.70
44851;DHT22;30583;48.714;9.386;2023-06-26T03:32:57;22.50;51.60
44851;DHT22;30583;48.714;9.386;2023-06-26T03:35:22;22.50;51.30
44851;DHT22;30583;48.714;9.386;2023-06-26T03:37:49;21.80;52.70
44851;DHT22;30583;48.714;9.386;2023-06-26T03:40:14;21.30;54.60
44851;DHT22;30583;48.714;9.386;2023-06-26T03:42:40;22.00;52.80
44851;DHT22;30583;48.714;9.386;2023-06-26T03:45:06;22.20;52.50
44851;DHT22;30583;48.714;9.386;2023-06-26T03:47:32;22.20;52.30
44851;DHT22;30583;48.714;9.386;2023-06-26T03:49:57;22.20;52.00
44851;DHT22;30583;48.714;9.386;2023-06-26T03:52:23;22.20;51.80
44851;DHT22;30583;48.714;9.386;2023-06-26T03:54:49;21.70;52.90
44851;DHT22;30583;48.714;9.386;2023-06-26T03:57:14;21.70;53.60
44851;DHT22;30583;48.714;9.386;2023-06-26T03:59:40;22.00;52.90
44851;DHT22;30583;48.714;9.386;2023-06-26T04:02:05;21.60;54.30
44851;DHT22;30583;48.714;9.386;2023-06-26T04:04:31;21.80;53.50
44851;DHT22;30583;48.714;9.386;2023-06-26T04:06:57;22.10;53.00
44851;DHT22;30583;48.714;9.386;2023-06-26T04:09:24;22.00;53.30
44851;DHT22;30583;48.714;9.386;2023-06-26T04:11:50;21.70;53.50
44851;DHT22;30583;48.714;9.386;2023-06-26T04:14:16;21.60;54.90
44851;DHT22;30583;48.714;9.386;2023-06-26T04:16:41;22.10;53.30
44851;DHT22;30583;48.714;9.386;2023-06-26T04:19:07;22.40;52.90
44851;DHT22;30583;48.714;9.386;2023-06-26T04:21:35;22.70;52.90
44851;DHT22;30583;48.714;9.386;2023-06-26T04:24:01;22.80;52.90
44851;DHT22;30583;48.714;9.386;2023-06-26T04:26:26;23.00;52.60
44851;DHT22;30583;48.714;9.386;2023-06-26T04:28:53;23.10;52.40
44851;DHT22;30583;48.714;9.386;2023-06-26T04:31:19;23.20;52.40
44851;DHT22;30583;48.714;9.386;2023-06-26T04:33:44;23.20;51.90
44851;DHT22;30583;48.714;9.386;2023-06-26T04:36:10;23.20;52.20
44851;DHT22;30583;48.714;9.386;2023-06-26T04:38:36;23.20;52.50
44851;DHT22;30583;48.714;9.386;2023-06-26T04:41:02;23.40;52.30
44851;DHT22;30583;48.714;9.386;2023-06-26T04:43:28;22.50;53.20
44851;DHT22;30583;48.714;9.386;2023-06-26T04:45:54;22.70;53.00
44851;DHT22;30583;48.714;9.386;2023-06-26T04:48:19;22.80;53.70
44851;DHT22;30583;48.714;9.386;2023-06-26T04:50:45;22.90;53.70
44851;DHT22;30583;48.714;9.386;2023-06-26T04:53:19;23.10;53.30
44851;DHT22;30583;48.714;9.386;2023-06-26T04:55:45;23.00;53.20
44851;DHT22;30583;48.714;9.386;2023-06-26T04:58:11;22.90;52.30
44851;DHT22;30583;48.714;9.386;2023-06-26T05:00:36;22.70;53.00
44851;DHT22;30583;48.714;9.386;2023-06-26T05:03:02;22.50;53.90
44851;DHT22;30583;48.714;9.386;2023-06-26T05:05:28;22.50;55.50
44851;DHT22;30583;48.714;9.386;2023-06-26T05:07:54;21.90;55.30
44851;DHT22;30583;48.714;9.386;2023-06-26T05:10:20;21.90;55.60
44851;DHT22;30583;48.714;9.386;2023-06-26T05:12:46;22.00;57.40
44851;DHT22;30583;48.714;9.386;2023-06-26T05:15:11;22.10;55.90
44851;DHT22;30583;48.714;9.386;2023-06-26T05:17:37;23.30;56.30
44851;DHT22;30583;48.714;9.386;2023-06-26T05:20:03;23.70;53.70
44851;DHT22;30583;48.714;9.386;2023-06-26T05:22:34;22.80;55.50
44851;DHT22;30583;48.714;9.386;2023-06-26T05:25:04;23.20;56.20
44851;DHT22;30583;48.714;9.386;2023-06-26T05:27:30;23.80;54.10
44851;DHT22;30583;48.714;9.386;2023-06-26T05:29:56;23.90;53.10
44851;DHT22;30583;48.714;9.386;2023-06-26T05:32:22;24.00;52.90
44851;DHT22;30583;48.714;9.386;2023-06-26T05:34:48;23.20;52.80
44851;DHT22;30583;48.714;9.386;2023-06-26T05:37:21;22.40;53.70
44851;DHT22;30583;48.714;9.386;2023-06-26T05:39:48;22.00;56.10
44851;DHT22;30583;48.714;9.386;2023-06-26T05:42:15;22.30;55.10
44851;DHT22;30583;48.714;9.386;2023-06-26T05:44:41;23.00;52.30
44851;DHT22;30583;48.714;9.386;2023-06-26T05:47:06;22.90;54.10
44851;DHT22;30583;48.714;9.386;2023-06-26T05:49:33;23.60;52.20
44851;DHT22;30583;48.714;9.386;2023-06-26T05:51:59;23.60;51.30
44851;DHT22;30583;48.714;9.386;2023-06-26T05:54:25;22.60;54.00
44851;DHT22;30583;48.714;9.386;2023-06-26T05:56:57;22.70;54.10
44851;DHT22;30583;48.714;9.386;2023-06-26T05:59:25;23.00;53.70
44851;DHT22;30583;48.714;9.386;2023-06-26T06:01:52;22.90;54.40
44851;DHT22;30583;48.714;9.386;2023-06-26T06:04:18;22.80;54.20
44851;DHT22;30583;48.714;9.386;2023-06-26T06:06:43;23.00;53.40
44851;DHT22;30583;48.714;9.386;2023-06-26T06:09:09;23.00;54.20
44851;DHT22;30583;48.714;9.386;2023-06-26T06:11:34;23.10;53.40
44851;DHT22;30583;48.714;9.386;2023-06-26T06:14:00;23.30;53.30
44851;DHT22;30583;48.714;9.386;2023-06-26T06:16:26;23.00;54.40
44851;DHT22;30583;48.714;9.386;2023-06-26T06:18:54;23.20;54.30
44851;DHT22;30583;48.714;9.386;2023-06-26T06:21:20;23.60;53.00
44851;DHT22;30583;48.714;9.386;2023-06-26T06:23:46;22.90;54.30
44851;DHT22;30583;48.714;9.386;2023-06-26T06:26:12;22.90;54.40
44851;DHT22;30583;48.714;9.386;2023-06-26T06:28:38;23.30;53.70
44851;DHT22;30583;48.714;9.386;2023-06-26T06:31:04;23.30;53.90
44851;DHT22;30583;48.714;9.386;2023-06-26T06:33:30;23.70;52.90
44851;DHT22;30583;48.714;9.386;2023-06-26T06:35:56;23.90;52.60
44851;DHT22;30583;48.714;9.386;2023-06-26T06:38:21;23.90;52.00
44851;DHT22;30583;48.714;9.386;2023-06-26T06:40:47;24.00;52.00
44851;DHT22;30583;48.714;9.386;2023-06-26T06:43:12;23.80;51.60
44851;DHT22;30583;48.714;9.386;2023-06-26T06:45:38;24.00;52.00
44851;DHT22;30583;48.714;9.386;2023-06-26T06:48:04;24.20;51.50
44851;DHT22;30583;48.714;9.386;2023-06-26T06:50:30;23.70;52.70
44851;DHT22;30583;48.714;9.386;2023-06-26T06:52:55;24.10;52.10
44851;DHT22;30583;48.714;9.386;2023-06-26T06:55:22;24.10;51.80
44851;DHT22;30583;48.714;9.386;2023-06-26T06:57:47;24.30;51.30
44851;DHT22;30583;48.714;9.386;2023-06-26T07:00:13;24.20;51.30
44851;DHT22;30583;48.714;9.386;2023-06-26T07:02:42;24.20;51.60
44851;DHT22;30583;48.714;9.386;2023-06-26T07:05:08;24.40;51.30
44851;DHT22;30583;48.714;9.386;2023-06-26T07:07:35;24.30;51.40
44851;DHT22;30583;48.714;9.386;2023-06-26T07:10:06;24.60;50.90
44851;DHT22;30583;48.714;9.386;2023-06-26T07:12:33;24.70;50.50
44851;DHT22;30583;48.714;9.386;2023-06-26T07:15:00;24.80;50.40
44851;DHT22;30583;48.714;9.386;2023-06-26T07:17:26;24.80;50.50
44851;DHT22;30583;48.714;9.386;2023-06-26T07:19:52;25.00;50.00
44851;DHT22;30583;48.714;9.386;2023-06-26T07:22:17;25.00;49.90
44851;DHT22;30583;48.714;9.386;2023-06-26T07:24:46;25.00;50.00
44851;DHT22;30583;48.714;9.386;2023-06-26T07:27:12;25.10;49.80
44851;DHT22;30583;48.714;9.386;2023-06-26T07:29:37;25.10;49.90
44851;DHT22;30583;48.714;9.386;2023-06-26T07:32:03;25.20;49.90
44851;DHT22;30583;48.714;9.386;2023-06-26T07:34:28;25.20;49.40
44851;DHT22;30583;48.714;9.386;2023-06-26T07:36:54;25.40;49.40
44851;DHT22;30583;48.714;9.386;2023-06-26T07:39:19;25.50;48.90
44851;DHT22;30583;48.714;9.386;2023-06-26T07:41:45;25.60;48.80
44851;DHT22;30583;48.714;9.386;2023-06-26T07:44:11;25.60;48.70
44851;DHT22;30583;48.714;9.386;2023-06-26T07:46:36;25.70;48.50
44851;DHT22;30583;48.714;9.386;2023-06-26T07:49:02;25.80;48.30
44851;DHT22;30583;48.714;9.386;2023-06-26T07:51:27;25.80;48.40
44851;DHT22;30583;48.714;9.386;2023-06-26T07:53:53;26.10;47.90
44851;DHT22;30583;48.714;9.386;2023-06-26T07:56:18;26.20;47.60
44851;DHT22;30583;48.714;9.386;2023-06-26T07:58:44;26.20;47.30
44851;DHT22;30583;48.714;9.386;2023-06-26T08:01:10;26.60;47.00
44851;DHT22;30583;48.714;9.386;2023-06-26T08:03:36;26.70;46.60
44851;DHT22;30583;48.714;9.386;2023-06-26T08:06:02;26.90;46.20
44851;DHT22;30583;48.714;9.386;2023-06-26T08:08:28;26.90;46.50
44851;DHT22;30583;48.714;9.386;2023-06-26T08:10:54;27.10;46.20
44851;DHT22;30583;48.714;9.386;2023-06-26T08:13:20;27.20;45.90
44851;DHT22;30583;48.714;9.386;2023-06-26T08:15:45;27.30;45.70
44851;DHT22;30583;48.714;9.386;2023-06-26T08:18:11;27.50;45.40
44851;DHT22;30583;48.714;9.386;2023-06-26T08:20:37;27.50;45.10
44851;DHT22;30583;48.714;9.386;2023-06-26T08:23:04;27.40;45.30
44851;DHT22;30583;48.714;9.386;2023-06-26T08:25:30;27.60;45.40
44851;DHT22;30583;48.714;9.386;2023-06-26T08:27:55;27.80;44.70
44851;DHT22;30583;48.714;9.386;2023-06-26T08:30:21;28.00;44.40
44851;DHT22;30583;48.714;9.386;2023-06-26T08:32:47;28.00;44.10
44851;DHT22;30583;48.714;9.386;2023-06-26T08:35:12;28.10;43.70
44851;DHT22;30583;48.714;9.386;2023-06-26T08:37:38;28.20;43.90
44851;DHT22;30583;48.714;9.386;2023-06-26T08:40:04;28.50;43.70
44851;DHT22;30583;48.714;9.386;2023-06-26T08:42:30;28.50;42.90
44851;DHT22;30583;48.714;9.386;2023-06-26T08:44:56;28.40;42.80
44851;DHT22;30583;48.714;9.386;2023-06-26T08:47:21;28.40;42.90
44851;DHT22;30583;48.714;9.386;2023-06-26T08:50:14;28.30;43.10
44851;DHT22;30583;48.714;9.386;2023-06-26T08:52:46;28.70;42.80
44851;DHT22;30583;48.714;9.386;2023-06-26T08:55:16;28.90;42.50
44851;DHT22;30583;48.714;9.386;2023-06-26T08:57:43;29.00;42.00
44851;DHT22;30583;48.714;9.386;2023-06-26T09:00:10;29.00;41.50
44851;DHT22;30583;48.714;9.386;2023-06-26T09:02:36;29.10;40.60
44851;DHT22;30583;48.714;9.386;2023-06-26T09:05:03;28.80;40.70
44851;DHT22;30583;48.714;9.386;2023-06-26T09:07:29;29.00;40.50
44851;DHT22;30583;48.714;9.386;2023-06-26T09:09:54;29.00;40.20
44851;DHT22;30583;48.714;9.386;2023-06-26T09:12:20;29.10;39.40
44851;DHT22;30583;48.714;9.386;2023-06-26T09:14:47;29.20;40.00
44851;DHT22;30583;48.714;9.386;2023-06-26T09:17:13;29.20;39.70
44851;DHT22;30583;48.714;9.386;2023-06-26T09:19:39;29.70;39.30
44851;DHT22;30583;48.714;9.386;2023-06-26T09:22:13;30.00;39.00
44851;DHT22;30583;48.714;9.386;2023-06-26T09:24:41;30.10;38.50
44851;DHT22;30583;48.714;9.386;2023-06-26T09:27:07;30.30;38.50
44851;DHT22;30583;48.714;9.386;2023-06-26T09:29:33;30.30;38.00
44851;DHT22;30583;48.714;9.386;2023-06-26T09:31:59;30.50;37.80
44851;DHT22;30583;48.714;9.386;2023-06-26T09:34:32;30.60;37.00
44851;DHT22;30583;48.714;9.386;2023-06-26T09:36:59;30.40;36.50
44851;DHT22;30583;48.714;9.386;2023-06-26T09:39:30;30.30;36.00
44851;DHT22;30583;48.714;9.386;2023-06-26T09:41:56;30.60;35.40
44851;DHT22;30583;48.714;9.386;2023-06-26T09:44:23;30.70;35.50
44851;DHT22;30583;48.714;9.386;2023-06-26T09:46:49;30.80;35.80
44851;DHT22;30583;48.714;9.386;2023-06-26T09:49:15;31.00;35.60
44851;DHT22;30583;48.714;9.386;2023-06-26T09:51:41;31.20;35.50
44851;DHT22;30583;48.714;9.386;2023-06-26T09:54:08;31.00;35.80
44851;DHT22;30583;48.714;9.386;2023-06-26T09:56:35;31.20;35.20
44851;DHT22;30583;48.714;9.386;2023-06-26T09:59:05;31.30;35.30
44851;DHT22;30583;48.714;9.386;2023-06-26T10:01:31;31.20;34.70
44851;DHT22;30583;48.714;9.386;2023-06-26T10:03:57;31.20;35.40
44851;DHT22;30583;48.714;9.386;2023-06-26T10:06:33;31.00;36.40
44851;DHT22;30583;48.714;9.386;2023-06-26T10:09:01;31.20;35.70
44851;DHT22;30583;48.714;9.386;2023-06-26T10:11:41;31.40;35.40
44851;DHT22;30583;48.714;9.386;2023-06-26T10:14:09;31.70;34.60
44851;DHT22;30583;48.714;9.386;2023-06-26T10:16:37;31.70;34.50
44851;DHT22;30583;48.714;9.386;2023-06-26T10:19:06;31.70;34.60
44851;DHT22;30583;48.714;9.386;2023-06-26T10:21:34;31.70;34.80
44851;DHT22;30583;48.714;9.386;2023-06-26T10:24:01;32.00;34.30
44851;DHT22;30583;48.714;9.386;2023-06-26T10:26:28;32.50;34.00
44851;DHT22;30583;48.714;9.386;2023-06-26T10:28:56;32.90;33.60
44851;DHT22;30583;48.714;9.386;2023-06-26T10:31:26;32.20;33.70
44851;DHT22;30583;48.714;9.386;2023-06-26T10:33:53;32.00;34.70
44851;DHT22;30583;48.714;9.386;2023-06-26T10:36:29;31.60;35.30
44851;DHT22;30583;48.714;9.386;2023-06-26T10:38:58;31.60;35.40
44851;DHT22;30583;48.714;9.386;2023-06-26T10:41:25;31.50;35.80
44851;DHT22;30583;48.714;9.386;2023-06-26T10:44:05;31.50;35.70
44851;DHT22;30583;48.714;9.386;2023-06-26T10:46:51;31.70;35.50
44851;DHT22;30583;48.714;9.386;2023-06-26T10:49:24;31.50;35.80
44851;DHT22;30583;48.714;9.386;2023-06-26T10:51:51;32.20;34.60
44851;DHT22;30583;48.714;9.386;2023-06-26T10:54:18;31.20;36.40
44851;DHT22;30583;48.714;9.386;2023-06-26T10:56:53;31.50;36.20
44851;DHT22;30583;48.714;9.386;2023-06-26T10:59:23;31.90;35.60
44851;DHT22;30583;48.714;9.386;2023-06-26T11:02:09;32.30;34.70
44851;DHT22;30583;48.714;9.386;2023-06-26T11:10:00;31.80;36.90
44851;DHT22;30583;48.714;9.386;2023-06-26T11:15:18;31.40;37.60
44851;DHT22;30583;48.714;9.386;2023-06-26T11:17:45;31.00;38.20
44851;DHT22;30583;48.714;9.386;2023-06-26T11:20:13;31.20;38.10
44851;DHT22;30583;48.714;9.386;2023-06-26T11:22:40;31.40;37.80
44851;DHT22;30583;48.714;9.386;2023-06-26T11:25:08;31.30;37.60
44851;DHT22;30583;48.714;9.386;2023-06-26T11:27:43;31.20;37.30
44851;DHT22;30583;48.714;9.386;2023-06-26T11:30:10;31.60;36.70
44851;DHT22;30583;48.714;9.386;2023-06-26T11:32:38;31.30;37.10
44851;DHT22;30583;48.714;9.386;2023-06-26T11:35:04;32.10;35.90
44851;DHT22;30583;48.714;9.386;2023-06-26T11:37:33;32.80;35.10
44851;DHT22;30583;48.714;9.386;2023-06-26T11:39:59;33.00;34.50
44851;DHT22;30583;48.714;9.386;2023-06-26T11:42:25;32.60;35.10
44851;DHT22;30583;48.714;9.386;2023-06-26T11:44:51;33.10;34.10
44851;DHT22;30583;48.714;9.386;2023-06-26T11:47:18;32.90;33.90
44851;DHT22;30583;48.714;9.386;2023-06-26T11:49:46;32.60;34.50
44851;DHT22;30583;48.714;9.386;2023-06-26T11:52:12;33.20;34.30
44851;DHT22;30583;48.714;9.386;2023-06-26T11:54:38;33.30;33.80
44851;DHT22;30583;48.714;9.386;2023-06-26T11:57:04;32.80;34.40
44851;DHT22;30583;48.714;9.386;2023-06-26T11:59:37;32.60;34.70
44851;DHT22;30583;48.714;9.386;2023-06-26T12:02:09;33.10;34.40
44851;DHT22;30583;48.714;9.386;2023-06-26T12:04:37;33.30;34.00
44851;DHT22;30583;48.714;9.386;2023-06-26T12:07:05;33.10;34.00
44851;DHT22;30583;48.714;9.386;2023-06-26T12:09:32;32.60;34.80
44851;DHT22;30583;48.714;9.386;2023-06-26T12:11:59;32.80;34.70
44851;DHT22;30583;48.714;9.386;2023-06-26T12:14:26;32.70;35.30
44851;DHT22;30583;48.714;9.386;2023-06-26T12:16:54;32.80;35.20
44851;DHT22;30583;48.714;9.386;2023-06-26T12:19:24;32.80;35.10
44851;DHT22;30583;48.714;9.386;2023-06-26T12:21:51;33.60;34.60
44851;DHT22;30583;48.714;9.386;2023-06-26T12:24:20;32.70;35.50
44851;DHT22;30583;48.714;9.386;2023-06-26T12:26:51;32.10;36.60
44851;DHT22;30583;48.714;9.386;2023-06-26T12:29:20;31.90;36.80
44851;DHT22;30583;48.714;9.386;2023-06-26T12:31:49;31.80;37.00
44851;DHT22;30583;48.714;9.386;2023-06-26T12:34:23;31.70;38.40
44851;DHT22;30583;48.714;9.386;2023-06-26T12:36:50;32.20;38.80
44851;DHT22;30583;48.714;9.386;2023-06-26T12:39:22;31.40;40.20
44851;DHT22;30583;48.714;9.386;2023-06-26T12:41:49;32.70;38.20
44851;DHT22;30583;48.714;9.386;2023-06-26T12:46:52;32.30;39.20
44851;DHT22;30583;48.714;9.386;2023-06-26T12:49:18;32.30;38.80
44851;DHT22;30583;48.714;9.386;2023-06-26T12:51:44;32.70;38.10
44851;DHT22;30583;48.714;9.386;2023-06-26T12:54:10;32.50;38.90
44851;DHT22;30583;48.714;9.386;2023-06-26T12:56:36;32.70;38.80
44851;DHT22;30583;48.714;9.386;2023-06-26T12:59:01;32.90;38.70
44851;DHT22;30583;48.714;9.386;2023-06-26T13:01:27;33.20;38.30
44851;DHT22;30583;48.714;9.386;2023-06-26T13:03:53;33.70;37.10
44851;DHT22;30583;48.714;9.386;2023-06-26T13:06:19;33.90;35.90
44851;DHT22;30583;48.714;9.386;2023-06-26T13:08:45;33.70;36.50
44851;DHT22;30583;48.714;9.386;2023-06-26T13:11:10;33.00;37.20
44851;DHT22;30583;48.714;9.386;2023-06-26T13:13:36;33.20;37.40
44851;DHT22;30583;48.714;9.386;2023-06-26T13:16:02;33.30;37.00
44851;DHT22;30583;48.714;9.386;2023-06-26T13:18:27;33.00;37.60
44851;DHT22;30583;48.714;9.386;2023-06-26T13:20:53;32.30;38.70
44851;DHT22;30583;48.714;9.386;2023-06-26T13:23:19;32.30;39.30
44851;DHT22;30583;48.714;9.386;2023-06-26T13:25:45;33.20;37.90
44851;DHT22;30583;48.714;9.386;2023-06-26T13:28:11;33.10;37.50
44851;DHT22;30583;48.714;9.386;2023-06-26T13:30:36;32.70;38.00
44851;DHT22;30583;48.714;9.386;2023-06-26T13:33:02;32.40;38.50
44851;DHT22;30583;48.714;9.386;2023-06-26T13:35:28;31.80;39.10
44851;DHT22;30583;48.714;9.386;2023-06-26T13:37:54;31.80;39.40
44851;DHT22;30583;48.714;9.386;2023-06-26T13:40:19;31.80;39.60
44851;DHT22;30583;48.714;9.386;2023-06-26T13:42:45;31.50;39.60
44851;DHT22;30583;48.714;9.386;2023-06-26T13:45:11;31.90;39.20
44851;DHT22;30583;48.714;9.386;2023-06-26T13:47:37;32.40;38.70
44851;DHT22;30583;48.714;9.386;2023-06-26T13:50:09;33.10;37.40
44851;DHT22;30583;48.714;9.386;2023-06-26T13:52:35;32.80;37.30
44851;DHT22;30583;48.714;9.386;2023-06-26T13:55:01;32.80;37.50
44851;DHT22;30583;48.714;9.386;2023-06-26T13:57:30;33.30;36.80
44851;DHT22;30583;48.714;9.386;2023-06-26T13:59:56;32.70;37.00
44851;DHT22;30583;48.714;9.386;2023-06-26T14:02:22;32.90;36.20
44851;DHT22;30583;48.714;9.386;2023-06-26T14:04:47;32.80;36.80
44851;DHT22;30583;48.714;9.386;2023-06-26T14:07:13;33.30;36.00
44851;DHT22;30583;48.714;9.386;2023-06-26T14:09:40;33.00;36.00
44851;DHT22;30583;48.714;9.386;2023-06-26T14:12:06;32.60;36.30
44851;DHT22;30583;48.714;9.386;2023-06-26T14:14:32;33.00;35.80
44851;DHT22;30583;48.714;9.386;2023-06-26T14:16:58;32.50;36.40
44851;DHT22;30583;48.714;9.386;2023-06-26T14:19:24;32.50;36.00
44851;DHT22;30583;48.714;9.386;2023-06-26T14:21:51;32.40;36.30
44851;DHT22;30583;48.714;9.386;2023-06-26T14:24:16;32.20;36.10
44851;DHT22;30583;48.714;9.386;2023-06-26T14:26:42;32.10;35.40
44851;DHT22;30583;48.714;9.386;2023-06-26T14:29:07;32.60;35.20
44851;DHT22;30583;48.714;9.386;2023-06-26T14:31:34;32.90;33.80
44851;DHT22;30583;48.714;9.386;2023-06-26T14:33:59;33.20;33.30
44851;DHT22;30583;48.714;9.386;2023-06-26T14:36:25;32.70;33.80
44851;DHT22;30583;48.714;9.386;2023-06-26T14:38:52;32.80;33.60
44851;DHT22;30583;48.714;9.386;2023-06-26T14:41:17;32.90;32.80
44851;DHT22;30583;48.714;9.386;2023-06-26T14:43:43;33.20;32.70
44851;DHT22;30583;48.714;9.386;2023-06-26T14:46:10;33.00;32.30
44851;DHT22;30583;48.714;9.386;2023-06-26T14:48:36;32.60;32.50
44851;DHT22;30583;48.714;9.386;2023-06-26T14:51:02;32.50;32.40
44851;DHT22;30583;48.714;9.386;2023-06-26T14:53:28;32.80;32.50
44851;DHT22;30583;48.714;9.386;2023-06-26T14:55:53;33.10;31.60
44851;DHT22;30583;48.714;9.386;2023-06-26T14:58:19;32.50;31.90
44851;DHT22;30583;48.714;9.386;2023-06-26T15:00:44;32.60;31.80
44851;DHT22;30583;48.714;9.386;2023-06-26T15:03:10;32.70;31.90
44851;DHT22;30583;48.714;9.386;2023-06-26T15:05:36;32.90;31.40
44851;DHT22;30583;48.714;9.386;2023-06-26T15:08:01;32.20;32.80
44851;DHT22;30583;48.714;9.386;2023-06-26T15:10:27;32.90;32.10
44851;DHT22;30583;48.714;9.386;2023-06-26T15:12:52;32.70;31.80
44851;DHT22;30583;48.714;9.386;2023-06-26T15:15:19;32.20;32.70
44851;DHT22;30583;48.714;9.386;2023-06-26T15:17:44;32.70;32.30
44851;DHT22;30583;48.714;9.386;2023-06-26T15:20:10;32.70;32.70
44851;DHT22;30583;48.714;9.386;2023-06-26T15:22:36;33.20;32.10
44851;DHT22;30583;48.714;9.386;2023-06-26T15:25:01;32.40;33.00
44851;DHT22;30583;48.714;9.386;2023-06-26T15:27:27;33.00;32.10
44851;DHT22;30583;48.714;9.386;2023-06-26T15:29:53;32.20;33.20
44851;DHT22;30583;48.714;9.386;2023-06-26T15:32:19;32.70;32.50
44851;DHT22;30583;48.714;9.386;2023-06-26T15:34:45;32.80;32.40
44851;DHT22;30583;48.714;9.386;2023-06-26T15:37:12;32.60;33.10
44851;DHT22;30583;48.714;9.386;2023-06-26T15:39:38;32.50;33.50
44851;DHT22;30583;48.714;9.386;2023-06-26T15:42:05;32.40;33.10
44851;DHT22;30583;48.714;9.386;2023-06-26T15:44:30;32.20;33.50